sensor_id;sensor_type;location;lat;lon;timestamp;temperature;humidity
17571;DHT22;8903;52.220;20.978;2023-10-31T00:02:24;11.60;99.90
17571;DHT22;8903;52.220;20.978;2023-10-31T00:04:52;11.60;99.90
17571;DHT22;8903;52.220;20.978;2023-10-31T00:07:19;11.60;99.90
17571;DHT22;8903;52.220;20.978;2023-10-31T00:09:46;11.60;99.90
17571;DHT22;8903;52.220;20.978;2023-10-31T00:12:14;11.50;99.90
17571;DHT22;8903;52.220;20.978;2023-10-31T00:14:40;11.50;99.90
17571;DHT22;8903;52.220;20.978;2023-10-31T00:17:07;11.50;99.90
17571;DHT22;8903;52.220;20.978;2023-10-31T00:19:35;11.40;99.90
17571;DHT22;8903;52.220;20.978;2023-10-31T00:22:03;11.40;99.90
17571;DHT22;8903;52.220;20.978;2023-10-31T00:24:30;11.40;99.90
17571;DHT22;8903;52.220;20.978;2023-10-31T00:26:58;11.40;99.90
17571;DHT22;8903;52.220;20.978;2023-10-31T00:29:25;11.40;99.90
17571;DHT22;8903;52.220;20.978;2023-10-31T00:31:52;11.30;99.90
17571;DHT22;8903;52.220;20.978;2023-10-31T00:34:20;11.30;99.90
17571;DHT22;8903;52.220;20.978;2023-10-31T00:36:47;11.30;99.90
17571;DHT22;8903;52.220;20.978;2023-10-31T00:39:15;11.30;99.90
17571;DHT22;8903;52.220;20.978;2023-10-31T00:41:44;11.30;99.90
17571;DHT22;8903;52.220;20.978;2023-10-31T00:44:12;11.30;99.90
17571;DHT22;8903;52.220;20.978;2023-10-31T00:46:39;11.30;99.90
17571;DHT22;8903;52.220;20.978;2023-10-31T00:49:06;11.30;99.90
17571;DHT22;8903;52.220;20.978;2023-10-31T00:51:33;11.30;99.90
17571;DHT22;8903;52.220;20.978;2023-10-31T00:54:00;11.30;99.90
17571;DHT22;8903;52.220;20.978;2023-10-31T00:56:29;11.30;99.90
17571;DHT22;8903;52.220;20.978;2023-10-31T00:58:57;11.30;99.90
17571;DHT22;8903;52.220;20.978;2023-10-31T01:01:24;11.30;99.90
17571;DHT22;8903;52.220;20.978;2023-10-31T01:03:51;11.30;99.90
17571;DHT22;8903;52.220;20.978;2023-10-31T01:06:18;11.30;99.90
17571;DHT22;8903;52.220;20.978;2023-10-31T01:08:45;11.30;99.90
17571;DHT22;8903;52.220;20.978;2023-10-31T01:11:13;11.30;99.90
17571;DHT22;8903;52.220;20.978;2023-10-31T01:13:43;11.30;99.90
17571;DHT22;8903;52.220;20.978;2023-10-31T01:16:09;11.30;99.90
17571;DHT22;8903;52.220;20.978;2023-10-31T01:18:37;11.30;99.90
17571;DHT22;8903;52.220;20.978;2023-10-31T01:21:04;11.20;99.90
17571;DHT22;8903;52.220;20.978;2023-10-31T01:23:31;11.20;99.90
17571;DHT22;8903;52.220;20.978;2023-10-31T01:25:58;11.20;99.90
17571;DHT22;8903;52.220;20.978;2023-10-31T01:28:25;11.20;99.90
17571;DHT22;8903;52.220;20.978;2023-10-31T01:30:56;11.20;99.90
17571;DHT22;8903;52.220;20.978;2023-10-31T01:33:23;11.20;99.90
17571;DHT22;8903;52.220;20.978;2023-10-31T01:35:51;11.20;99.90
17571;DHT22;8903;52.220;20.978;2023-10-31T01:38:19;11.20;99.90
17571;DHT22;8903;52.220;20.978;2023-10-31T01:40:48;11.20;99.90
17571;DHT22;8903;52.220;20.978;2023-10-31T01:43:29;11.20;99.90
17571;DHT22;8903;52.220;20.978;2023-10-31T01:45:58;11.20;99.90
17571;DHT22;8903;52.220;20.978;2023-10-31T01:48:27;11.30;99.90
17571;DHT22;8903;52.220;20.978;2023-10-31T01:50:56;11.30;99.90
17571;DHT22;8903;52.220;20.978;2023-10-31T01:53:24;11.30;99.90
17571;DHT22;8903;52.220;20.978;2023-10-31T01:55:52;11.30;99.90
17571;DHT22;8903;52.220;20.978;2023-10-31T01:58:25;11.40;99.90
17571;DHT22;8903;52.220;20.978;2023-10-31T02:00:52;11.40;99.90
17571;DHT22;8903;52.220;20.978;2023-10-31T02:03:22;11.40;99.90
17571;DHT22;8903;52.220;20.978;2023-10-31T02:05:51;11.40;99.90
17571;DHT22;8903;52.220;20.978;2023-10-31T02:08:19;11.40;99.90
17571;DHT22;8903;52.220;20.978;2023-10-31T02:10:50;11.40;99.90
17571;DHT22;8903;52.220;20.978;2023-10-31T02:13:18;11.40;99.90
17571;DHT22;8903;52.220;20.978;2023-10-31T02:15:45;11.40;99.90
17571;DHT22;8903;52.220;20.978;2023-10-31T02:18:14;11.40;99.90
17571;DHT22;8903;52.220;20.978;2023-10-31T02:20:43;11.40;99.90
17571;DHT22;8903;52.220;20.978;2023-10-31T02:23:12;11.40;99.90
17571;DHT22;8903;52.220;20.978;2023-10-31T02:25:41;11.40;99.90
17571;DHT22;8903;52.220;20.978;2023-10-31T02:28:08;11.50;99.90
17571;DHT22;8903;52.220;20.978;2023-10-31T02:30:36;11.50;99.90
17571;DHT22;8903;52.220;20.978;2023-10-31T02:33:03;11.50;99.90
17571;DHT22;8903;52.220;20.978;2023-10-31T02:35:30;11.50;99.90
17571;DHT22;8903;52.220;20.978;2023-10-31T02:37:57;11.60;99.90
17571;DHT22;8903;52.220;20.978;2023-10-31T02:40:27;11.60;99.90
17571;DHT22;8903;52.220;20.978;2023-10-31T02:42:54;11.60;99.90
17571;DHT22;8903;52.220;20.978;2023-10-31T02:45:21;11.60;99.90
17571;DHT22;8903;52.220;20.978;2023-10-31T02:47:48;11.70;99.90
17571;DHT22;8903;52.220;20.978;2023-10-31T02:50:15;11.70;99.90
17571;DHT22;8903;52.220;20.978;2023-10-31T02:52:42;11.70;99.90
17571;DHT22;8903;52.220;20.978;2023-10-31T02:55:09;11.80;99.90
17571;DHT22;8903;52.220;20.978;2023-10-31T02:57:38;11.80;99.90
17571;DHT22;8903;52.220;20.978;2023-10-31T03:00:07;11.80;99.90
17571;DHT22;8903;52.220;20.978;2023-10-31T03:02:35;11.80;99.90
17571;DHT22;8903;52.220;20.978;2023-10-31T03:05:04;11.90;99.90
17571;DHT22;8903;52.220;20.978;2023-10-31T03:07:35;11.90;99.90
17571;DHT22;8903;52.220;20.978;2023-10-31T03:10:02;11.90;99.90
17571;DHT22;8903;52.220;20.978;2023-10-31T03:12:29;11.90;99.90
17571;DHT22;8903;52.220;20.978;2023-10-31T03:14:59;11.90;99.90
17571;DHT22;8903;52.220;20.978;2023-10-31T03:17:26;12.00;99.90
17571;DHT22;8903;52.220;20.978;2023-10-31T03:19:53;12.00;99.90
17571;DHT22;8903;52.220;20.978;2023-10-31T03:22:20;12.00;99.90
17571;DHT22;8903;52.220;20.978;2023-10-31T03:24:47;12.10;99.90
17571;DHT22;8903;52.220;20.978;2023-10-31T03:27:15;12.10;99.90
17571;DHT22;8903;52.220;20.978;2023-10-31T03:29:42;12.10;99.90
17571;DHT22;8903;52.220;20.978;2023-10-31T03:32:11;12.10;99.90
17571;DHT22;8903;52.220;20.978;2023-10-31T03:34:39;12.10;99.90
17571;DHT22;8903;52.220;20.978;2023-10-31T03:37:07;12.20;99.90
17571;DHT22;8903;52.220;20.978;2023-10-31T03:39:35;12.20;99.90
17571;DHT22;8903;52.220;20.978;2023-10-31T03:42:02;12.20;99.90
17571;DHT22;8903;52.220;20.978;2023-10-31T03:44:32;12.30;99.90
17571;DHT22;8903;52.220;20.978;2023-10-31T03:46:59;12.30;99.90
17571;DHT22;8903;52.220;20.978;2023-10-31T03:49:27;12.30;99.90
17571;DHT22;8903;52.220;20.978;2023-10-31T03:51:54;12.30;99.90
17571;DHT22;8903;52.220;20.978;2023-10-31T03:54:21;12.40;99.90
17571;DHT22;8903;52.220;20.978;2023-10-31T03:56:48;12.30;99.90
17571;DHT22;8903;52.220;20.978;2023-10-31T03:59:16;12.30;99.90
17571;DHT22;8903;52.220;20.978;2023-10-31T04:01:43;12.40;99.90
17571;DHT22;8903;52.220;20.978;2023-10-31T04:04:10;12.40;99.90
17571;DHT22;8903;52.220;20.978;2023-10-31T04:06:39;12.50;99.90
17571;DHT22;8903;52.220;20.978;2023-10-31T04:09:06;12.50;99.90
17571;DHT22;8903;52.220;20.978;2023-10-31T04:11:33;12.50;99.90
17571;DHT22;8903;52.220;20.978;2023-10-31T04:14:01;12.50;99.90
17571;DHT22;8903;52.220;20.978;2023-10-31T04:16:31;12.60;99.90
17571;DHT22;8903;52.220;20.978;2023-10-31T04:18:58;12.60;99.90
17571;DHT22;8903;52.220;20.978;2023-10-31T04:21:25;12.60;99.90
17571;DHT22;8903;52.220;20.978;2023-10-31T04:23:53;12.70;99.90
17571;DHT22;8903;52.220;20.978;2023-10-31T04:26:20;12.70;99.90
17571;DHT22;8903;52.220;20.978;2023-10-31T04:28:48;12.80;99.90
17571;DHT22;8903;52.220;20.978;2023-10-31T04:31:15;12.80;99.90
17571;DHT22;8903;52.220;20.978;2023-10-31T04:33:42;12.80;99.90
17571;DHT22;8903;52.220;20.978;2023-10-31T04:36:09;12.90;99.90
17571;DHT22;8903;52.220;20.978;2023-10-31T04:38:36;12.90;99.90
17571;DHT22;8903;52.220;20.978;2023-10-31T04:41:07;12.90;99.90
17571;DHT22;8903;52.220;20.978;2023-10-31T04:43:35;13.00;99.90
17571;DHT22;8903;52.220;20.978;2023-10-31T04:46:02;13.00;99.90
17571;DHT22;8903;52.220;20.978;2023-10-31T04:48:29;13.10;99.90
17571;DHT22;8903;52.220;20.978;2023-10-31T04:50:58;13.10;99.90
17571;DHT22;8903;52.220;20.978;2023-10-31T04:53:25;13.20;99.90
17571;DHT22;8903;52.220;20.978;2023-10-31T04:55:52;13.20;99.90
17571;DHT22;8903;52.220;20.978;2023-10-31T04:58:20;13.20;99.90
17571;DHT22;8903;52.220;20.978;2023-10-31T05:00:47;13.30;99.90
17571;DHT22;8903;52.220;20.978;2023-10-31T05:03:14;13.30;99.90
17571;DHT22;8903;52.220;20.978;2023-10-31T05:05:41;13.30;99.90
17571;DHT22;8903;52.220;20.978;2023-10-31T05:08:08;13.30;99.90
17571;DHT22;8903;52.220;20.978;2023-10-31T05:10:35;13.40;99.90
17571;DHT22;8903;52.220;20.978;2023-10-31T05:13:02;13.40;99.90
17571;DHT22;8903;52.220;20.978;2023-10-31T05:15:30;13.40;99.90
17571;DHT22;8903;52.220;20.978;2023-10-31T05:17:58;13.40;99.90
17571;DHT22;8903;52.220;20.978;2023-10-31T05:20:25;13.50;99.90
17571;DHT22;8903;52.220;20.978;2023-10-31T05:22:52;13.50;99.90
17571;DHT22;8903;52.220;20.978;2023-10-31T05:25:19;13.50;99.90
17571;DHT22;8903;52.220;20.978;2023-10-31T05:27:49;13.60;99.90
17571;DHT22;8903;52.220;20.978;2023-10-31T05:30:17;13.60;99.90
17571;DHT22;8903;52.220;20.978;2023-10-31T05:32:46;13.60;99.90
17571;DHT22;8903;52.220;20.978;2023-10-31T05:35:13;13.70;99.90
17571;DHT22;8903;52.220;20.978;2023-10-31T05:37:40;13.70;99.90
17571;DHT22;8903;52.220;20.978;2023-10-31T05:40:09;13.80;99.90
17571;DHT22;8903;52.220;20.978;2023-10-31T05:42:36;13.80;99.90
17571;DHT22;8903;52.220;20.978;2023-10-31T05:45:04;13.90;99.90
17571;DHT22;8903;52.220;20.978;2023-10-31T05:47:31;13.90;99.90
17571;DHT22;8903;52.220;20.978;2023-10-31T05:50:01;14.00;99.90
17571;DHT22;8903;52.220;20.978;2023-10-31T05:52:28;14.00;99.90
17571;DHT22;8903;52.220;20.978;2023-10-31T05:54:56;14.10;99.90
17571;DHT22;8903;52.220;20.978;2023-10-31T05:57:23;14.20;99.90
17571;DHT22;8903;52.220;20.978;2023-10-31T05:59:50;14.20;99.90
17571;DHT22;8903;52.220;20.978;2023-10-31T06:02:17;14.20;99.90
17571;DHT22;8903;52.220;20.978;2023-10-31T06:04:45;14.20;99.90
17571;DHT22;8903;52.220;20.978;2023-10-31T06:07:13;14.20;99.90
17571;DHT22;8903;52.220;20.978;2023-10-31T06:09:40;14.20;99.90
17571;DHT22;8903;52.220;20.978;2023-10-31T06:12:07;14.20;99.90
17571;DHT22;8903;52.220;20.978;2023-10-31T06:14:34;14.20;99.90
17571;DHT22;8903;52.220;20.978;2023-10-31T06:17:01;14.30;99.90
17571;DHT22;8903;52.220;20.978;2023-10-31T06:19:29;14.30;99.90
17571;DHT22;8903;52.220;20.978;2023-10-31T06:21:56;14.40;99.90
17571;DHT22;8903;52.220;20.978;2023-10-31T06:24:25;14.40;99.90
17571;DHT22;8903;52.220;20.978;2023-10-31T06:26:52;14.40;99.90
17571;DHT22;8903;52.220;20.978;2023-10-31T06:29:19;14.50;99.90
17571;DHT22;8903;52.220;20.978;2023-10-31T06:31:46;14.50;99.90
17571;DHT22;8903;52.220;20.978;2023-10-31T06:34:13;14.50;99.90
17571;DHT22;8903;52.220;20.978;2023-10-31T06:36:40;14.40;99.90
17571;DHT22;8903;52.220;20.978;2023-10-31T06:39:07;14.30;99.90
17571;DHT22;8903;52.220;20.978;2023-10-31T06:41:36;14.30;99.90
17571;DHT22;8903;52.220;20.978;2023-10-31T06:44:03;14.30;99.90
17571;DHT22;8903;52.220;20.978;2023-10-31T06:46:30;14.30;99.90
17571;DHT22;8903;52.220;20.978;2023-10-31T06:48:57;14.30;99.90
17571;DHT22;8903;52.220;20.978;2023-10-31T06:51:24;14.30;99.90
17571;DHT22;8903;52.220;20.978;2023-10-31T06:53:51;14.40;99.90
17571;DHT22;8903;52.220;20.978;2023-10-31T06:56:18;14.40;99.90
17571;DHT22;8903;52.220;20.978;2023-10-31T06:58:47;14.40;99.90
17571;DHT22;8903;52.220;20.978;2023-10-31T07:01:15;14.40;99.90
17571;DHT22;8903;52.220;20.978;2023-10-31T07:03:45;14.40;99.90
17571;DHT22;8903;52.220;20.978;2023-10-31T07:06:12;14.40;99.90
17571;DHT22;8903;52.220;20.978;2023-10-31T07:08:39;14.40;99.90
17571;DHT22;8903;52.220;20.978;2023-10-31T07:11:06;14.40;99.90
17571;DHT22;8903;52.220;20.978;2023-10-31T07:13:33;14.40;99.90
17571;DHT22;8903;52.220;20.978;2023-10-31T07:16:01;14.40;99.90
17571;DHT22;8903;52.220;20.978;2023-10-31T07:18:28;14.40;99.90
17571;DHT22;8903;52.220;20.978;2023-10-31T07:20:56;14.30;99.90
17571;DHT22;8903;52.220;20.978;2023-10-31T07:23:23;14.30;99.90
17571;DHT22;8903;52.220;20.978;2023-10-31T07:25:50;14.40;99.90
17571;DHT22;8903;52.220;20.978;2023-10-31T07:28:17;14.40;99.90
17571;DHT22;8903;52.220;20.978;2023-10-31T07:30:45;14.50;99.90
17571;DHT22;8903;52.220;20.978;2023-10-31T07:33:14;14.50;99.90
17571;DHT22;8903;52.220;20.978;2023-10-31T07:35:41;14.50;99.90
17571;DHT22;8903;52.220;20.978;2023-10-31T07:38:08;14.60;99.90
17571;DHT22;8903;52.220;20.978;2023-10-31T07:40:35;14.60;99.90
17571;DHT22;8903;52.220;20.978;2023-10-31T07:43:02;14.60;99.90
17571;DHT22;8903;52.220;20.978;2023-10-31T07:45:29;14.60;99.90
17571;DHT22;8903;52.220;20.978;2023-10-31T07:47:56;14.70;99.90
17571;DHT22;8903;52.220;20.978;2023-10-31T07:50:25;14.80;99.90
17571;DHT22;8903;52.220;20.978;2023-10-31T07:52:52;14.80;99.90
17571;DHT22;8903;52.220;20.978;2023-10-31T07:55:19;14.80;99.90
17571;DHT22;8903;52.220;20.978;2023-10-31T07:57:46;14.80;99.90
17571;DHT22;8903;52.220;20.978;2023-10-31T08:00:14;14.80;99.90
17571;DHT22;8903;52.220;20.978;2023-10-31T08:02:41;14.80;99.90
17571;DHT22;8903;52.220;20.978;2023-10-31T08:05:09;14.80;99.90
17571;DHT22;8903;52.220;20.978;2023-10-31T08:07:38;14.90;99.90
17571;DHT22;8903;52.220;20.978;2023-10-31T08:10:07;14.90;99.90
17571;DHT22;8903;52.220;20.978;2023-10-31T08:12:34;14.90;99.90
17571;DHT22;8903;52.220;20.978;2023-10-31T08:15:01;14.90;99.90
17571;DHT22;8903;52.220;20.978;2023-10-31T08:17:28;15.00;99.90
17571;DHT22;8903;52.220;20.978;2023-10-31T08:19:55;15.00;99.90
17571;DHT22;8903;52.220;20.978;2023-10-31T08:22:22;15.00;99.90
17571;DHT22;8903;52.220;20.978;2023-10-31T08:24:51;15.10;99.90
17571;DHT22;8903;52.220;20.978;2023-10-31T08:27:18;15.10;99.90
17571;DHT22;8903;52.220;20.978;2023-10-31T08:29:45;15.20;99.90
17571;DHT22;8903;52.220;20.978;2023-10-31T08:32:13;15.20;99.90
17571;DHT22;8903;52.220;20.978;2023-10-31T08:34:40;15.30;99.90
17571;DHT22;8903;52.220;20.978;2023-10-31T08:37:07;15.30;99.90
17571;DHT22;8903;52.220;20.978;2023-10-31T08:39:34;15.40;99.90
17571;DHT22;8903;52.220;20.978;2023-10-31T08:42:03;15.50;99.90
17571;DHT22;8903;52.220;20.978;2023-10-31T08:44:30;15.50;99.90
17571;DHT22;8903;52.220;20.978;2023-10-31T08:46:59;15.60;99.90
17571;DHT22;8903;52.220;20.978;2023-10-31T08:49:26;15.70;99.90
17571;DHT22;8903;52.220;20.978;2023-10-31T08:51:54;15.80;99.90
17571;DHT22;8903;52.220;20.978;2023-10-31T08:54:21;15.90;99.90
17571;DHT22;8903;52.220;20.978;2023-10-31T08:56:48;16.00;99.90
17571;DHT22;8903;52.220;20.978;2023-10-31T08:59:17;16.00;99.90
17571;DHT22;8903;52.220;20.978;2023-10-31T09:01:44;16.00;99.90
17571;DHT22;8903;52.220;20.978;2023-10-31T09:04:11;16.00;99.90
17571;DHT22;8903;52.220;20.978;2023-10-31T09:06:38;16.10;99.90
17571;DHT22;8903;52.220;20.978;2023-10-31T09:09:05;16.10;99.90
17571;DHT22;8903;52.220;20.978;2023-10-31T09:11:32;16.10;99.90
17571;DHT22;8903;52.220;20.978;2023-10-31T09:14:00;16.10;99.90
17571;DHT22;8903;52.220;20.978;2023-10-31T09:16:28;16.10;99.90
17571;DHT22;8903;52.220;20.978;2023-10-31T09:18:55;16.10;99.90
17571;DHT22;8903;52.220;20.978;2023-10-31T09:21:22;16.10;99.90
17571;DHT22;8903;52.220;20.978;2023-10-31T09:23:49;16.00;99.90
17571;DHT22;8903;52.220;20.978;2023-10-31T09:26:16;16.10;99.90
17571;DHT22;8903;52.220;20.978;2023-10-31T09:28:45;16.00;99.90
17571;DHT22;8903;52.220;20.978;2023-10-31T09:31:16;16.00;99.90
17571;DHT22;8903;52.220;20.978;2023-10-31T09:33:45;16.00;99.90
17571;DHT22;8903;52.220;20.978;2023-10-31T09:36:12;16.00;99.90
17571;DHT22;8903;52.220;20.978;2023-10-31T09:38:40;16.00;99.90
17571;DHT22;8903;52.220;20.978;2023-10-31T09:41:07;16.00;99.90
17571;DHT22;8903;52.220;20.978;2023-10-31T09:43:34;16.00;99.90
17571;DHT22;8903;52.220;20.978;2023-10-31T09:46:02;16.00;99.90
17571;DHT22;8903;52.220;20.978;2023-10-31T09:48:29;16.00;99.90
17571;DHT22;8903;52.220;20.978;2023-10-31T09:50:59;16.00;99.90
17571;DHT22;8903;52.220;20.978;2023-10-31T09:53:27;16.10;99.90
17571;DHT22;8903;52.220;20.978;2023-10-31T09:55:55;16.10;99.90
17571;DHT22;8903;52.220;20.978;2023-10-31T09:58:23;16.10;99.90
17571;DHT22;8903;52.220;20.978;2023-10-31T10:00:50;16.20;99.90
17571;DHT22;8903;52.220;20.978;2023-10-31T10:03:17;16.20;99.90
17571;DHT22;8903;52.220;20.978;2023-10-31T10:05:44;16.30;99.90
17571;DHT22;8903;52.220;20.978;2023-10-31T10:08:14;16.30;99.90
17571;DHT22;8903;52.220;20.978;2023-10-31T10:10:42;16.40;99.90
17571;DHT22;8903;52.220;20.978;2023-10-31T10:13:10;16.40;99.90
17571;DHT22;8903;52.220;20.978;2023-10-31T10:15:45;16.40;99.90
17571;DHT22;8903;52.220;20.978;2023-10-31T10:18:25;16.40;99.90
17571;DHT22;8903;52.220;20.978;2023-10-31T10:20:56;16.50;99.90
17571;DHT22;8903;52.220;20.978;2023-10-31T10:23:28;16.50;99.90
17571;DHT22;8903;52.220;20.978;2023-10-31T10:25:57;16.60;99.90
17571;DHT22;8903;52.220;20.978;2023-10-31T10:28:27;16.70;99.90
17571;DHT22;8903;52.220;20.978;2023-10-31T10:30:55;16.70;99.90
17571;DHT22;8903;52.220;20.978;2023-10-31T10:33:22;16.80;99.90
17571;DHT22;8903;52.220;20.978;2023-10-31T10:35:49;16.80;99.90
17571;DHT22;8903;52.220;20.978;2023-10-31T10:38:17;16.90;99.90
17571;DHT22;8903;52.220;20.978;2023-10-31T10:40:48;16.90;99.90
17571;DHT22;8903;52.220;20.978;2023-10-31T10:43:20;17.00;99.90
17571;DHT22;8903;52.220;20.978;2023-10-31T10:45:53;17.10;99.90
17571;DHT22;8903;52.220;20.978;2023-10-31T10:48:22;17.10;99.90
17571;DHT22;8903;52.220;20.978;2023-10-31T10:51:04;17.20;99.90
17571;DHT22;8903;52.220;20.978;2023-10-31T10:53:38;17.20;99.90
17571;DHT22;8903;52.220;20.978;2023-10-31T10:56:16;17.20;99.90
17571;DHT22;8903;52.220;20.978;2023-10-31T10:58:51;17.30;99.90
17571;DHT22;8903;52.220;20.978;2023-10-31T11:01:19;17.30;99.90
17571;DHT22;8903;52.220;20.978;2023-10-31T11:03:47;17.30;99.90
17571;DHT22;8903;52.220;20.978;2023-10-31T11:06:14;17.40;99.90
17571;DHT22;8903;52.220;20.978;2023-10-31T11:08:41;17.40;99.90
17571;DHT22;8903;52.220;20.978;2023-10-31T11:11:12;17.50;99.90
17571;DHT22;8903;52.220;20.978;2023-10-31T11:13:42;17.50;99.90
17571;DHT22;8903;52.220;20.978;2023-10-31T11:16:15;17.60;99.90
17571;DHT22;8903;52.220;20.978;2023-10-31T11:18:44;17.60;99.90
17571;DHT22;8903;52.220;20.978;2023-10-31T11:21:15;17.70;99.90
17571;DHT22;8903;52.220;20.978;2023-10-31T11:23:41;17.70;99.90
17571;DHT22;8903;52.220;20.978;2023-10-31T11:26:11;17.70;99.90
17571;DHT22;8903;52.220;20.978;2023-10-31T11:28:39;17.70;99.90
17571;DHT22;8903;52.220;20.978;2023-10-31T11:31:08;17.70;99.90
17571;DHT22;8903;52.220;20.978;2023-10-31T11:33:38;17.70;99.90
17571;DHT22;8903;52.220;20.978;2023-10-31T11:36:08;17.70;99.90
17571;DHT22;8903;52.220;20.978;2023-10-31T11:38:38;17.70;99.90
17571;DHT22;8903;52.220;20.978;2023-10-31T11:41:05;17.70;99.90
17571;DHT22;8903;52.220;20.978;2023-10-31T11:43:54;17.70;99.90
17571;DHT22;8903;52.220;20.978;2023-10-31T11:46:23;17.70;99.90
17571;DHT22;8903;52.220;20.978;2023-10-31T11:48:55;17.70;99.90
17571;DHT22;8903;52.220;20.978;2023-10-31T11:51:24;17.70;99.90
17571;DHT22;8903;52.220;20.978;2023-10-31T11:53:51;17.60;99.90
17571;DHT22;8903;52.220;20.978;2023-10-31T11:56:21;17.60;99.90
17571;DHT22;8903;52.220;20.978;2023-10-31T11:59:02;17.60;99.90
17571;DHT22;8903;52.220;20.978;2023-10-31T12:01:29;17.60;99.90
17571;DHT22;8903;52.220;20.978;2023-10-31T12:04:00;17.50;99.90
17571;DHT22;8903;52.220;20.978;2023-10-31T12:06:29;17.50;99.90
17571;DHT22;8903;52.220;20.978;2023-10-31T12:08:59;17.50;99.90
17571;DHT22;8903;52.220;20.978;2023-10-31T12:11:27;17.40;99.90
17571;DHT22;8903;52.220;20.978;2023-10-31T12:13:55;17.40;99.90
17571;DHT22;8903;52.220;20.978;2023-10-31T12:16:25;17.50;99.90
17571;DHT22;8903;52.220;20.978;2023-10-31T12:18:57;17.70;99.90
17571;DHT22;8903;52.220;20.978;2023-10-31T12:21:39;18.00;99.90
17571;DHT22;8903;52.220;20.978;2023-10-31T12:24:09;18.00;99.90
17571;DHT22;8903;52.220;20.978;2023-10-31T12:26:39;17.80;99.90
17571;DHT22;8903;52.220;20.978;2023-10-31T12:29:07;17.70;99.90
17571;DHT22;8903;52.220;20.978;2023-10-31T12:31:39;17.70;99.90
17571;DHT22;8903;52.220;20.978;2023-10-31T12:34:06;17.60;99.90
17571;DHT22;8903;52.220;20.978;2023-10-31T12:36:34;17.60;99.90
17571;DHT22;8903;52.220;20.978;2023-10-31T12:39:02;17.60;99.90
17571;DHT22;8903;52.220;20.978;2023-10-31T12:41:31;17.60;99.90
17571;DHT22;8903;52.220;20.978;2023-10-31T12:43:59;17.50;99.90
17571;DHT22;8903;52.220;20.978;2023-10-31T12:46:28;17.40;99.90
17571;DHT22;8903;52.220;20.978;2023-10-31T12:48:57;17.30;99.90
17571;DHT22;8903;52.220;20.978;2023-10-31T12:51:25;17.20;99.90
17571;DHT22;8903;52.220;20.978;2023-10-31T12:53:53;17.10;99.90
17571;DHT22;8903;52.220;20.978;2023-10-31T12:56:39;17.10;99.90
17571;DHT22;8903;52.220;20.978;2023-10-31T12:59:07;17.00;99.90
17571;DHT22;8903;52.220;20.978;2023-10-31T13:01:35;16.90;99.90
17571;DHT22;8903;52.220;20.978;2023-10-31T13:04:05;16.90;99.90
17571;DHT22;8903;52.220;20.978;2023-10-31T13:06:33;16.90;99.90
17571;DHT22;8903;52.220;20.978;2023-10-31T13:09:01;16.90;99.90
17571;DHT22;8903;52.220;20.978;2023-10-31T13:11:32;16.80;99.90
17571;DHT22;8903;52.220;20.978;2023-10-31T13:13:59;16.80;99.90
17571;DHT22;8903;52.220;20.978;2023-10-31T13:16:27;16.80;99.90
17571;DHT22;8903;52.220;20.978;2023-10-31T13:18:54;16.70;99.90
17571;DHT22;8903;52.220;20.978;2023-10-31T13:21:25;16.70;99.90
17571;DHT22;8903;52.220;20.978;2023-10-31T13:23:52;16.60;99.90
17571;DHT22;8903;52.220;20.978;2023-10-31T13:26:24;16.60;99.90
17571;DHT22;8903;52.220;20.978;2023-10-31T13:28:52;16.60;99.90
17571;DHT22;8903;52.220;20.978;2023-10-31T13:31:19;16.60;99.90
17571;DHT22;8903;52.220;20.978;2023-10-31T13:33:46;16.50;99.90
17571;DHT22;8903;52.220;20.978;2023-10-31T13:36:13;16.50;99.90
17571;DHT22;8903;52.220;20.978;2023-10-31T13:38:42;16.50;99.90
17571;DHT22;8903;52.220;20.978;2023-10-31T13:41:09;16.50;99.90
17571;DHT22;8903;52.220;20.978;2023-10-31T13:43:36;16.40;99.90
17571;DHT22;8903;52.220;20.978;2023-10-31T13:46:04;16.40;99.90
17571;DHT22;8903;52.220;20.978;2023-10-31T13:48:31;16.40;99.90
17571;DHT22;8903;52.220;20.978;2023-10-31T13:51:02;16.40;99.90
17571;DHT22;8903;52.220;20.978;2023-10-31T13:53:31;16.40;99.90
17571;DHT22;8903;52.220;20.978;2023-10-31T13:55:59;16.30;99.90
17571;DHT22;8903;52.220;20.978;2023-10-31T13:58:27;16.30;99.90
17571;DHT22;8903;52.220;20.978;2023-10-31T14:00:54;16.30;99.90
17571;DHT22;8903;52.220;20.978;2023-10-31T14:03:21;16.30;99.90
17571;DHT22;8903;52.220;20.978;2023-10-31T14:05:48;16.20;99.90
17571;DHT22;8903;52.220;20.978;2023-10-31T14:08:17;16.20;99.90
17571;DHT22;8903;52.220;20.978;2023-10-31T14:10:44;16.20;99.90
17571;DHT22;8903;52.220;20.978;2023-10-31T14:13:14;16.20;99.90
17571;DHT22;8903;52.220;20.978;2023-10-31T14:15:44;16.20;99.90
17571;DHT22;8903;52.220;20.978;2023-10-31T14:18:11;16.30;99.90
17571;DHT22;8903;52.220;20.978;2023-10-31T14:20:40;16.30;99.90
17571;DHT22;8903;52.220;20.978;2023-10-31T14:23:09;16.30;99.90
17571;DHT22;8903;52.220;20.978;2023-10-31T14:25:36;16.20;99.90
17571;DHT22;8903;52.220;20.978;2023-10-31T14:28:04;16.20;99.90
17571;DHT22;8903;52.220;20.978;2023-10-31T14:30:33;16.20;99.90
17571;DHT22;8903;52.220;20.978;2023-10-31T14:33:00;16.10;99.90
17571;DHT22;8903;52.220;20.978;2023-10-31T14:35:27;16.10;99.90
17571;DHT22;8903;52.220;20.978;2023-10-31T14:37:54;16.00;99.90
17571;DHT22;8903;52.220;20.978;2023-10-31T14:40:21;16.10;99.90
17571;DHT22;8903;52.220;20.978;2023-10-31T14:42:48;16.00;99.90
17571;DHT22;8903;52.220;20.978;2023-10-31T14:45:15;16.00;99.90
17571;DHT22;8903;52.220;20.978;2023-10-31T14:47:44;15.90;99.90
17571;DHT22;8903;52.220;20.978;2023-10-31T14:50:11;15.90;99.90
17571;DHT22;8903;52.220;20.978;2023-10-31T14:52:38;15.80;99.90
17571;DHT22;8903;52.220;20.978;2023-10-31T14:55:07;15.80;99.90
17571;DHT22;8903;52.220;20.978;2023-10-31T14:57:35;15.70;99.90
17571;DHT22;8903;52.220;20.978;2023-10-31T15:00:03;15.70;99.90
17571;DHT22;8903;52.220;20.978;2023-10-31T15:02:30;15.60;99.90
17571;DHT22;8903;52.220;20.978;2023-10-31T15:04:59;15.50;99.90
17571;DHT22;8903;52.220;20.978;2023-10-31T15:07:26;15.50;99.90
17571;DHT22;8903;52.220;20.978;2023-10-31T15:09:53;15.40;99.90
17571;DHT22;8903;52.220;20.978;2023-10-31T15:12:20;15.50;99.90
17571;DHT22;8903;52.220;20.978;2023-10-31T15:14:47;15.40;99.90
17571;DHT22;8903;52.220;20.978;2023-10-31T15:17:17;15.40;99.90
17571;DHT22;8903;52.220;20.978;2023-10-31T15:19:44;15.30;99.90
17571;DHT22;8903;52.220;20.978;2023-10-31T15:22:13;15.30;99.90
17571;DHT22;8903;52.220;20.978;2023-10-31T15:24:40;15.20;99.90
17571;DHT22;8903;52.220;20.978;2023-10-31T15:27:08;15.20;99.90
17571;DHT22;8903;52.220;20.978;2023-10-31T15:29:39;15.10;99.90
17571;DHT22;8903;52.220;20.978;2023-10-31T15:32:07;15.10;99.90
17571;DHT22;8903;52.220;20.978;2023-10-31T15:34:34;15.00;99.90
17571;DHT22;8903;52.220;20.978;2023-10-31T15:37:02;15.00;99.90